Motte Rimrock Reserve, California Weather observations

Data are for 10 minute period ending at time listed.
 Day   Time   Solar   Ave.   Ave.  Ave.  Vector  Max.   Baro.   Total    
  of    of     Rad.   Air    Rel.  Wind   Wind   Wind  Press.  Precip.   
Year   Day            Temp.  Hum.  Speed  Dir.   Gust                    
2014   (PST)  Kw/m2    F      %     mph   deg.    mph    mb.     in.     
-------------------------------------------------------------------------
 293   10:40   0.67   71.1    60    2.0    63     3.7   946.9    0.00 
 293   10:50   0.68   72.7    56    2.2    69     5.2   946.7    0.00 
 293   11:00   0.69   72.3    56    3.7   341     5.4   946.6    0.00 
 293   11:10   0.69   73.7    53    2.7   250     8.0   946.5    0.00 
 293   11:20   0.70   75.1    51    2.3    24     4.4   946.3    0.00 
 293   11:30   0.71   74.9    53    2.9    66     6.6   946.1    0.00 
 293   11:40   0.70   74.5    54    4.1    72     9.0   945.9    0.00 
 293   11:50   0.70   75.2    53    4.2    26     9.8   945.8    0.00 
 293   12:00   0.69   74.7    55    7.5   332    11.6   945.7    0.00 
 293   12:10   0.69   74.1    56    7.7   309    12.3   945.6    0.00 
 293   12:20   0.69   73.9    57    9.4   297    14.5   945.5    0.00 
 293   12:30   0.68   73.8    57   10.0   300    14.0   945.4    0.00 
 293   12:40   0.68   73.9    57   10.7   299    14.0   945.4    0.00 
 293   12:50   0.66   74.0    56   10.9   305    15.2   945.3    0.00 
 293   13:00   0.65   74.1    56   11.1   304    15.1   945.3    0.00 
 293   13:10   0.64   74.5    55   10.0   311    13.8   945.2    0.00 
 293   13:20   0.61   74.9    54    8.6   316    13.8   945.1    0.00 
 293   13:30   0.60   75.1    53    8.8   320    13.2   944.9    0.00 
 293   13:40   0.57   76.1    51    7.2   330    11.3   944.9    0.00 
 293   13:50   0.55   76.3    50    8.8   331    12.2   944.8    0.00 
 293   14:00   0.53   76.5    50    7.0   312    10.7   944.7    0.00 
 293   14:10   0.51   77.2    48    6.9   327    11.5   944.6    0.00 
 293   14:20   0.48   77.0    49    7.8   320    12.5   944.6    0.00 
 293   14:30   0.46   77.2    48    9.0   310    13.8   944.5    0.00 
 293   14:40   0.43   77.1    48    7.8   323    12.2   944.4    0.00 
 293   14:50   0.40   76.9    49    8.3   314    12.6   944.4    0.00 
 293   15:00   0.36   76.8    50   10.0   299    14.3   944.4    0.00 
 293   15:10   0.34   76.6    50   10.3   307    13.8   944.4    0.00 
 293   15:20   0.25   75.9    51    9.3   311    12.1   944.4    0.00 
 293   15:30   0.27   76.0    51    9.8   315    14.0   944.3    0.00 
 293   15:40   0.25   76.1    51   10.1   314    13.4   944.3    0.00 
 293   15:50   0.21   76.1    51    9.4   319    13.1   944.3    0.00 
 293   16:00   0.18   75.8    51   10.2   311    14.9   944.3    0.00 
 293   16:10   0.14   75.2    52   11.1   319    15.1   944.3    0.00 
 293   16:20   0.11   74.6    52   11.3   307    14.6   944.4    0.00 
 293   16:30   0.09   74.4    52   12.6   314    15.7   944.4    0.00 
 293   16:40   0.07   73.8    53   13.2   310    16.5   944.4    0.00 
 293   16:50   0.05   72.9    54   12.5   303    16.9   944.4    0.00 
 293   17:00   0.02   72.0    56   13.6   309    17.2   944.5    0.00 
 293   17:10   0.00   71.4    56   12.3   303    15.6   944.4    0.00 
 293   17:20   0.00   70.9    57   12.3   302    15.4   944.4    0.00 
 293   17:30   0.00   70.3    58   11.9   306    14.9   944.5    0.00 
 293   17:40   0.00   69.9    59   12.5   306    15.0   944.7    0.00 
 293   17:50   0.00   69.4    60   11.2   309    13.5   944.8    0.00 
 293   18:00   0.00   69.1    61   11.2   305    13.7   944.8    0.00 
 293   18:10   0.00   68.8    62   10.9   306    13.3   944.9    0.00 
 293   18:20   0.00   68.6    62    9.1   305    11.5   944.9    0.00 
 293   18:30   0.00   68.3    63    8.2   309    10.7   945.0    0.00 
 293   18:40   0.00   68.1    64   11.2   306    13.9   945.1    0.00 
 293   18:50   0.00   67.8    64   12.1   307    15.1   945.1    0.00 
 293   19:00   0.00   67.2    66   13.5   305    16.2   945.2    0.00 
 293   19:10   0.00   66.1    70   14.2   302    18.0   945.2    0.00 
 293   19:20   0.00   65.4    72   13.3   301    16.1   945.2    0.00 
 293   19:30   0.00   65.1    73   11.9   300    15.1   945.3    0.00 
 293   19:40   0.00   65.0    74   12.4   299    15.5   945.5    0.00 
 293   19:50   0.00   64.8    74   10.2   299    13.4   945.6    0.00 
 293   20:00   0.00   64.8    74    9.1   301    12.0   945.7    0.00 
 293   20:10   0.00   64.9    74    2.6     3     8.8   945.9    0.00 
 293   20:20   0.00   64.8    75    1.7   354     4.3   945.9    0.00 
 293   20:30   0.00   64.1    76    2.6   318     5.0   945.9    0.00 
 293   20:40   0.00   63.7    77    2.4    36     4.9   946.1    0.00 
 293   20:50   0.00   63.4    78    3.4     0     5.3   946.1    0.00 
 293   21:00   0.00   62.7    80    2.2   335     3.8   946.2    0.00 
 293   21:10   0.00   62.2    81    3.1   327     4.5   946.3    0.00 
 293   21:20   0.00   61.5    82    4.0   325     4.5   946.2    0.00 
 293   21:30   0.00   61.6    84    3.1   343     3.9   946.1    0.00 
 293   21:40   0.00   61.8    84    1.8   345     2.6   946.1    0.00 
 293   21:50   0.00   61.8    84    2.5    91     4.2   946.0    0.00 
 293   22:00   0.00   61.4    86    3.0   118     3.9   945.9    0.00 
 293   22:10   0.00   61.0    87    2.7   118     3.4   946.0    0.00 
 293   22:20   0.00   60.9    88    0.4   112     1.8   946.0    0.00 
 293   22:30   0.00   61.0    88    0.3   120     1.0   945.9    0.00 
 293   22:40   0.00   60.8    88    0.0     0     0.0   945.8    0.00 
 293   22:50   0.00   60.6    89    0.3   121     1.1   945.8    0.00 
 293   23:00   0.00   60.7    90    1.2   360     2.1   945.6    0.00 
 293   23:10   0.00   60.6    90    1.1    22     1.6   945.5    0.00 
 293   23:20   0.00   60.5    90    0.7    56     1.2   945.4    0.00 
 293   23:30   0.00   60.4    90    0.5    99     1.5   945.3    0.00 
 293   23:40   0.00   60.1    90    1.0    62     1.8   945.3    0.00 
 293   23:50   0.00   59.5    90    2.3   329     2.9   945.5    0.00 
 294    0:00   0.00   60.1    90    2.7   337     3.6   945.5    0.00 
 294    0:10   0.00   60.2    90    2.2   345     3.5   945.3    0.00 
 294    0:20   0.00   60.2    90    2.5     2     3.2   945.3    0.00 
 294    0:30   0.00   60.3    90    2.0     6     2.4   945.3    0.00 
 294    0:40   0.00   59.9    90    3.5   348     6.4   945.3    0.00 
 294    0:50   0.00   59.0    91    6.1   334     8.6   945.5    0.00 
 294    1:00   0.00   58.5    92    8.9   319    12.0   945.4    0.00 
 294    1:10   0.00   58.7    93   11.1   311    13.2   945.5    0.00 
 294    1:20   0.00   58.6    94    8.9   309    12.3   945.4    0.00 
 294    1:30   0.00   58.3    94    5.1   329     6.9   945.4    0.00 
 294    1:40   0.00   58.5    94    5.4   327     7.5   945.3    0.00 
 294    1:50   0.00   58.3    94    5.8   322     8.6   945.3    0.00 
 294    2:00   0.00   58.0    94    6.6   314     8.8   945.4    0.00 
 294    2:10   0.00   58.0    94    6.9   313    11.2   945.3    0.00 
 294    2:20   0.00   58.1    94    9.6   310    12.0   945.3    0.00 
 294    2:30   0.00   58.4    95    8.6   307    11.1   945.2    0.00 
 294    2:40   0.00   58.2    94    2.9   330     6.5   945.1    0.00 
 294    2:50   0.00   58.4    94    2.2   322     3.1   945.0    0.00 
 294    3:00   0.00   58.0    94    1.2   135     5.1   945.0    0.00 
 294    3:10   0.00   56.2    94    3.0   134     5.1   944.9    0.00 
 294    3:20   0.00   56.2    95    5.9   129     8.1   944.5    0.00 
 294    3:30   0.00   55.8    95    3.1   144     7.2   944.6    0.00 
 294    3:40   0.00   55.4    95    2.5   219     3.4   944.6    0.00 
 294    3:50   0.00   54.8    95    2.5   230     3.1   944.5    0.00 
 294    4:00   0.00   54.8    95    2.0   223     3.9   944.5    0.00 
 294    4:10   0.00   54.9    96    2.8   238     4.2   944.6    0.00 
 294    4:20   0.00   55.1    96    2.0   193     2.9   944.7    0.00 
 294    4:30   0.00   55.2    96    2.1   244     3.7   944.8    0.00 
 294    4:40   0.00   55.4    96    1.3   285     2.7   944.9    0.00 
 294    4:50   0.00   55.7    97    1.9    13     3.4   945.0    0.00 
 294    5:00   0.00   56.0    97    3.6    52     4.7   945.1    0.00 
 294    5:10   0.00   55.8    97    4.4    54     5.0   945.2    0.00 
 294    5:20   0.00   55.8    97    4.4    66     5.2   945.2    0.00 
 294    5:30   0.00   56.2    97    4.5    86     5.8   945.0    0.00 
 294    5:40   0.00   56.4    97    3.1    94     4.7   945.0    0.00 
 294    5:50   0.00   56.3    97    3.7   120     4.7   945.0    0.00 
 294    6:00   0.00   56.3    97    3.2   146     4.5   944.9    0.00 
 294    6:10   0.00   56.4    97    4.0   169     5.6   944.9    0.00 
 294    6:20   0.00   56.2    97    1.9   188     5.1   945.1    0.00 
 294    6:30   0.01   56.4    97    0.8    78     2.1   945.3    0.00 
 294    6:40   0.01   56.8    97    1.3    22     2.6   945.4    0.00 
 294    6:50   0.03   56.6    97    2.2   119     3.8   945.4    0.00 
 294    7:00   0.05   56.5    97    2.4   135     4.5   945.5    0.00 
 294    7:10   0.07   56.6    97    2.1   156     3.2   945.6    0.00 
 294    7:20   0.09   57.0    97    3.4   144     4.7   945.7    0.00 
 294    7:30   0.08   57.2    97    3.8   108     5.0   945.8    0.00 
 294    7:40   0.09   57.5    97    2.5   104     4.4   946.0    0.00 
 294    7:50   0.11   57.2    97    2.6   130     4.5   946.1    0.00 
 294    8:00   0.15   57.4    97    3.1   163     4.9   946.1    0.00 
 294    8:10   0.20   57.4    98    3.1   219     4.3   946.2    0.00 
 294    8:20   0.26   58.1   100    2.8   232     4.7   946.2    0.00 
 294    8:30   0.33   59.1   100    1.1   188     2.4   946.2    0.00 
 294    8:40   0.37   60.6   100    0.5   160     2.6   946.3    0.00 
 294    8:50   0.34   60.5   100    3.1   119     4.8   946.3    0.00 
 294    9:00   0.34   59.7   100    3.6   110     5.2   946.3    0.00 
 294    9:10   0.47   60.2   100    2.1   115     3.7   946.3    0.00 
 294    9:20   0.56   61.4   100    1.7    92     3.7   946.4    0.00 
 294    9:30   0.58   61.7   100    3.7    83     5.7   946.2    0.00 
 294    9:40   0.60   62.7    94    3.7    87     5.5   946.2    0.00 
 294    9:50   0.63   65.2    74    2.5    75     4.2   946.2    0.00 
 294   10:00   0.65   67.3    62    2.7    71     5.1   946.3    0.00 
 294   10:10   0.66   68.8    59    2.2    68     4.4   946.2    0.00 
 294   10:20   0.68   70.7    55    2.8    76     5.8   946.1    0.00 
 294   10:30   0.69   70.9    55    3.2    58     5.4   946.0    0.00 

Return to Motte Rimrock Reserve graphs page.


Western Regional Climate Center,wrcc@dri.edu